Details for Norwegian Air International at LEPA




Go Back


Latest METAR
Local Time

LEPA 250430Z 06010KT 9999 FEW025 19/14 Q1013 NOSIG

25/05/2018, 06:58:05

Description
Results
Norwegian Air International Logo
Number of Pilots based at LEPA
0 Pilots Based here
Number of Norwegian Air International Flights Departed from LEPA
2 Flights Departed
Number of Norwegian Air International Flights Arrived at LEPA
0 Flights Arrived
Number of Norwegian Air International Schedules Departing from LEPA
46 Schedules
Number of Norwegian Air International Schedules Arriving at LEPA
43 Schedules
Number of Norwegian Air International Schedules Departing from LEPA availible today
13 Schedules Today
Number of Norwegian Air International Schedules Arriving at LEPA availible today
13 Schedules Today
Average Landing Rate at LEPA
-178 fpm
Norwegian Air International Average Landing Rate at LEPA
0 fpm
Total Fuel Purchased at LEPA by Norwegian Air International
6,427.85 kgs / 14,170.84 lbs

Pilots Based at LEPA


Pilot ID
Pilot Name
Pilot Rank
No. of Flights
No. of Flying Hours
There are no pilots assigned to this hub!   Will you be the first?
Content